Time;durP1;ratioP1;P1;durP2;ratioP2;P2;SDS_P1;SDS_P2;PMS_P1;PMS_P2;Temp;Humidity;BMP_temperature;BMP_pressure;BME280_temperature;BME280_humidity;BME280_pressure;Samples;Min_cycle;Max_cycle;Signal;HPM_P1;HPM_P2
2023/11/02 00:03:29;;;;;;;3.37;2.10;;;;;;;13.24;54.98;97182.16;6944874;28;20210;-88
2023/11/02 00:06:57;;;;;;;3.23;2.30;;;;;;;13.10;54.73;97118.75;6953169;28;20700;-88
2023/11/02 00:10:21;;;;;;;3.17;2.20;;;;;;;12.97;55.08;97147.06;6973113;28;20206;-88
2023/11/02 00:13:44;;;;;;;2.43;2.33;;;;;;;12.35;57.31;97139.78;6970972;28;20210;-88
2023/11/02 00:17:15;;;;;;;2.10;2.00;;;;;;;12.07;58.23;97138.16;6956718;28;20203;-87
2023/11/02 00:20:37;;;;;;;2.20;2.00;;;;;;;12.19;57.56;97084.78;6958382;28;20195;-88
2023/11/02 00:23:59;;;;;;;2.00;1.90;;;;;;;12.46;57.38;97120.69;6972053;28;20221;-88
2023/11/02 00:27:22;;;;;;;2.77;1.90;;;;;;;12.35;56.01;97035.22;6968454;28;20233;-88
2023/11/02 00:30:45;;;;;;;2.00;1.90;;;;;;;12.45;54.84;96981.22;6972490;28;20544;-88
2023/11/02 00:34:07;;;;;;;2.10;1.90;;;;;;;12.64;55.71;97084.34;6971531;28;20344;-88
2023/11/02 00:37:29;;;;;;;4.13;1.80;;;;;;;12.76;54.83;97036.28;6988815;28;20295;-88
2023/11/02 00:40:50;;;;;;;3.70;1.80;;;;;;;12.73;54.10;97017.88;6986551;28;20285;-88
2023/11/02 00:44:13;;;;;;;1.90;1.80;;;;;;;13.02;53.71;97027.25;6971752;28;20203;-88
2023/11/02 00:47:35;;;;;;;1.90;1.80;;;;;;;12.90;52.97;96977.94;6969466;28;20329;-88
2023/11/02 00:51:19;;;;;;;2.00;1.90;;;;;;;13.26;52.97;97037.38;6972259;28;20721;-88
2023/11/02 00:54:59;;;;;;;3.50;1.90;;;;;;;12.90;52.56;96973.34;6971796;28;20289;-88
2023/11/02 00:58:28;;;;;;;2.50;1.87;;;;;;;13.12;53.14;96984.03;6971890;28;20262;-88
2023/11/02 01:01:52;;;;;;;3.80;1.70;;;;;;;13.27;53.32;97003.03;6971275;28;20312;-90
2023/11/02 01:05:24;;;;;;;2.00;1.83;;;;;;;12.95;52.41;96937.41;6971389;28;20213;-90
2023/11/02 01:08:53;;;;;;;2.20;2.03;;;;;;;13.07;52.65;96987.53;6971679;28;20714;-90
2023/11/02 01:12:24;;;;;;;2.10;1.90;;;;;;;12.48;52.80;96866.38;6969994;28;20210;-88
2023/11/02 01:16:09;;;;;;;2.73;1.90;;;;;;;13.17;52.81;96946.16;6970850;28;20348;-88
2023/11/02 01:19:57;;;;;;;3.27;1.80;;;;;;;13.11;52.60;96937.19;6970973;28;20226;-88
2023/11/02 01:23:29;;;;;;;1.90;1.80;;;;;;;13.48;52.05;96948.69;6950354;28;20306;-88
2023/11/02 01:26:59;;;;;;;1.70;1.60;;;;;;;13.10;51.71;96875.25;6956816;28;20591;-88
2023/11/02 01:30:56;;;;;;;3.60;2.00;;;;;;;13.11;51.80;96877.69;6960099;28;20205;-88
2023/11/02 01:34:24;;;;;;;3.07;1.87;;;;;;;12.59;52.93;96838.31;6942720;28;20233;-88
2023/11/02 01:37:51;;;;;;;1.87;1.77;;;;;;;12.49;52.74;96822.03;6970406;28;20253;-88
2023/11/02 01:41:23;;;;;;;4.43;1.90;;;;;;;12.60;52.58;96810.19;6970768;28;20210;-87
2023/11/02 01:44:58;;;;;;;1.93;1.80;;;;;;;13.03;51.78;96832.22;6968892;28;20233;-88
2023/11/02 01:48:23;;;;;;;1.90;1.80;;;;;;;12.90;51.43;96784.03;6969869;28;20232;-88
2023/11/02 01:51:58;;;;;;;1.77;1.70;;;;;;;12.91;51.97;96804.59;6970293;28;20221;-88
2023/11/02 01:55:28;;;;;;;1.87;1.77;;;;;;;13.04;51.91;96797.88;6969470;28;20233;-88
2023/11/02 01:59:04;;;;;;;2.00;1.90;;;;;;;13.45;52.13;96846.34;6970379;28;20226;-88
2023/11/02 02:02:32;;;;;;;2.00;1.90;;;;;;;13.60;51.58;96824.69;6968654;28;20233;-88
2023/11/02 02:05:57;;;;;;;5.33;1.80;;;;;;;13.65;50.91;96785.97;6969692;28;20202;-89
2023/11/02 02:09:33;;;;;;;2.70;1.60;;;;;;;13.47;51.27;96773.81;6970433;28;20226;-89
2023/11/02 02:13:15;;;;;;;2.00;1.80;;;;;;;13.56;50.53;96747.78;6969195;28;20665;-89
2023/11/02 02:16:48;;;;;;;2.23;2.03;;;;;;;13.58;51.16;96794.34;6969030;28;20194;-88
2023/11/02 02:20:13;;;;;;;2.43;1.70;;;;;;;13.68;51.11;96796.25;6950390;28;20224;-89
2023/11/02 02:23:41;;;;;;;3.07;1.90;;;;;;;14.00;50.22;96796.72;6969468;28;20218;-89
2023/11/02 02:27:28;;;;;;;3.17;1.77;;;;;;;13.76;50.46;96782.16;6969942;28;20230;-89
2023/11/02 02:31:02;;;;;;;1.83;1.70;;;;;;;14.25;50.11;96810.22;6969897;28;20836;-89
2023/11/02 02:34:53;;;;;;;2.83;2.10;;;;;;;13.86;50.78;96758.56;6968206;28;20213;-89
2023/11/02 02:38:18;;;;;;;1.80;1.70;;;;;;;14.18;50.86;96812.38;6941728;28;20249;-89
2023/11/02 02:41:40;;;;;;;3.10;2.00;;;;;;;13.75;50.33;96707.41;6942648;28;20218;-89
2023/11/02 02:45:05;;;;;;;1.73;1.60;;;;;;;14.06;50.26;96747.66;6941564;28;20210;-89
2023/11/02 02:48:27;;;;;;;3.13;1.70;;;;;;;14.44;50.36;96787.63;6956524;28;20312;-89
2023/11/02 02:51:52;;;;;;;1.93;1.80;;;;;;;14.04;50.62;96727.34;6968193;28;20264;-88
2023/11/02 02:55:14;;;;;;;5.77;2.03;;;;;;;13.23;51.50;96666.38;6968955;28;20205;-89
2023/11/02 02:58:45;;;;;;;1.77;1.67;;;;;;;13.90;50.99;96720.88;6968957;28;20715;-89
2023/11/02 03:02:08;;;;;;;1.90;1.80;;;;;;;13.63;50.84;96655.47;6969758;28;20233;-89
2023/11/02 03:05:30;;;;;;;1.90;1.80;;;;;;;13.50;51.89;96673.09;6969361;28;20262;-89
2023/11/02 03:08:56;;;;;;;1.83;1.57;;;;;;;13.22;52.63;96662.84;6967249;28;20271;-89
2023/11/02 03:12:24;;;;;;;2.07;1.90;;;;;;;13.15;52.28;96624.47;6968959;28;20187;-89
2023/11/02 03:15:47;;;;;;;2.97;2.07;;;;;;;13.33;51.89;96629.28;6968552;28;20197;-89
2023/11/02 03:19:09;;;;;;;3.10;1.90;;;;;;;14.40;51.21;96750.53;6969178;28;20226;-89
2023/11/02 03:22:31;;;;;;;2.40;2.03;;;;;;;13.91;51.92;96717.91;6968301;28;20217;-89
2023/11/02 03:25:57;;;;;;;1.97;1.87;;;;;;;14.09;51.67;96743.59;6967317;28;20221;-89
2023/11/02 03:29:24;;;;;;;2.90;1.93;;;;;;;14.23;51.07;96717.53;6968793;28;20214;-89
2023/11/02 03:32:50;;;;;;;3.60;2.27;;;;;;;13.89;50.94;96649.66;6969413;28;20264;-89
2023/11/02 03:36:18;;;;;;;2.93;2.27;;;;;;;13.82;52.61;96708.75;6969431;28;20340;-89
2023/11/02 03:40:02;;;;;;;2.00;1.90;;;;;;;13.66;51.98;96625.13;6969218;28;20320;-89
2023/11/02 03:43:28;;;;;;;3.90;1.83;;;;;;;14.40;51.65;96685.47;6967708;28;20629;-89
2023/11/02 03:47:02;;;;;;;2.00;1.90;;;;;;;14.66;51.51;96719.44;6985141;28;20229;-89
2023/11/02 03:50:35;;;;;;;1.90;1.73;;;;;;;14.58;51.66;96749.88;6978521;28;20191;-89
2023/11/02 03:54:07;;;;;;;2.57;2.07;;;;;;;14.18;51.95;96704.81;6978388;28;20237;-89
2023/11/02 03:57:31;;;;;;;2.40;2.00;;;;;;;14.07;52.64;96672.59;6958663;28;20235;-89
2023/11/02 04:01:00;;;;;;;2.33;1.57;;;;;;;14.18;51.37;96630.81;6966762;28;20237;-89
2023/11/02 04:04:27;;;;;;;2.67;2.07;;;;;;;14.53;51.90;96687.53;6973601;28;20281;-89
2023/11/02 04:07:57;;;;;;;1.80;1.70;;;;;;;14.55;52.02;96650.09;6971839;28;20226;-89
2023/11/02 04:11:24;;;;;;;1.73;1.63;;;;;;;14.82;51.76;96629.53;6973586;28;20186;-89
2023/11/02 04:14:47;;;;;;;1.63;1.53;;;;;;;15.03;51.17;96619.31;6973072;28;20288;-89
2023/11/02 04:18:10;;;;;;;2.00;1.90;;;;;;;14.30;52.96;96621.28;6972812;28;20732;-89
2023/11/02 04:21:32;;;;;;;1.80;1.70;;;;;;;14.27;52.24;96531.59;6973028;28;20217;-89
2023/11/02 04:24:53;;;;;;;2.30;2.10;;;;;;;14.43;54.14;96592.72;6972372;28;20265;-89
2023/11/02 04:28:16;;;;;;;2.13;1.93;;;;;;;13.96;53.13;96449.72;6962185;28;20241;-89
2023/11/02 04:31:38;;;;;;;2.20;1.80;;;;;;;14.03;54.76;96525.22;6945519;28;20199;-89
2023/11/02 04:35:01;;;;;;;1.83;1.73;;;;;;;13.30;55.16;96385.50;6945952;28;20674;-89
2023/11/02 04:38:25;;;;;;;2.00;1.90;;;;;;;13.87;55.42;96439.78;6952546;28;20241;-89
2023/11/02 04:41:47;;;;;;;2.57;2.10;;;;;;;13.69;55.74;96411.47;6972961;28;20222;-89
2023/11/02 04:45:11;;;;;;;1.80;1.70;;;;;;;13.79;55.56;96433.06;6971590;28;20237;-89
2023/11/02 04:48:33;;;;;;;3.63;1.93;;;;;;;13.37;56.19;96411.16;6972456;28;20653;-89
2023/11/02 04:51:57;;;;;;;3.53;2.20;;;;;;;13.24;55.74;96392.84;6971663;28;20203;-90
2023/11/02 04:55:19;;;;;;;2.40;2.20;;;;;;;11.97;59.21;96337.91;6971803;28;20199;-89
2023/11/02 04:58:41;;;;;;;2.47;2.30;;;;;;;13.32;56.38;96377.88;6970484;28;20774;-88
2023/11/02 05:02:03;;;;;;;2.97;2.30;;;;;;;13.29;55.63;96351.41;6971247;28;20716;-89
2023/11/02 05:05:24;;;;;;;2.20;2.07;;;;;;;13.57;55.85;96437.28;6971463;28;20249;-88
2023/11/02 05:08:47;;;;;;;4.10;2.13;;;;;;;13.90;53.71;96374.19;6969391;28;20254;-89
2023/11/02 05:12:09;;;;;;;2.10;1.90;;;;;;;14.28;53.31;96389.56;6971877;28;20209;-89
2023/11/02 05:15:31;;;;;;;3.33;1.80;;;;;;;14.16;52.88;96391.84;6970827;28;20207;-89
2023/11/02 05:18:53;;;;;;;1.77;1.67;;;;;;;14.41;52.96;96407.88;6971541;28;20229;-89
2023/11/02 05:25:51;;;;;;;1.93;1.83;;;;;;;13.34;54.40;96306.16;6967371;28;20293;-89
2023/11/02 05:29:12;;;;;;;1.80;1.70;;;;;;;14.69;52.05;96371.75;6968881;28;20230;-89
2023/11/02 05:32:34;;;;;;;4.17;1.87;;;;;;;15.15;51.14;96364.66;6956398;28;20211;-89
2023/11/02 05:35:56;;;;;;;2.10;1.90;;;;;;;14.42;52.67;96311.88;6942268;28;20195;-89
2023/11/02 05:39:17;;;;;;;3.27;2.00;;;;;;;14.32;52.76;96307.41;6966695;28;20380;-89
2023/11/02 05:42:40;;;;;;;2.10;1.90;;;;;;;14.59;51.68;96290.53;6945416;28;20206;-88
2023/11/02 05:46:03;;;;;;;2.23;2.03;;;;;;;14.89;50.85;96301.78;6988468;28;20848;-88
2023/11/02 05:49:24;;;;;;;2.10;2.00;;;;;;;14.88;50.51;96297.47;6970190;28;20234;-86
2023/11/02 05:52:46;;;;;;;2.00;1.90;;;;;;;15.38;49.68;96288.56;6964831;28;20205;-89
2023/11/02 05:56:08;;;;;;;1.93;1.80;;;;;;;14.89;49.18;96182.44;6960828;28;20316;-89
2023/11/02 05:59:33;;;;;;;1.90;1.80;;;;;;;14.99;48.73;96186.88;6969179;28;20233;-89
2023/11/02 06:02:55;;;;;;;2.73;2.30;;;;;;;15.92;48.08;96263.47;6968783;28;20577;-88
2023/11/02 06:06:17;;;;;;;2.87;1.93;;;;;;;15.75;47.84;96231.44;6962403;28;20210;-89
2023/11/02 06:09:38;;;;;;;3.10;2.03;;;;;;;16.05;47.42;96289.84;6968521;28;20322;-89
2023/11/02 06:13:00;;;;;;;3.07;1.90;;;;;;;15.91;47.37;96306.13;6967568;28;20207;-89
2023/11/02 06:16:25;;;;;;;2.03;1.90;;;;;;;15.48;48.04;96307.44;6961660;28;20290;-89
2023/11/02 06:19:46;;;;;;;2.07;1.80;;;;;;;15.45;47.96;96282.78;6969598;28;20739;-89
2023/11/02 06:23:09;;;;;;;1.93;1.60;;;;;;;15.71;47.34;96349.16;6968644;28;20377;-90
2023/11/02 06:26:43;;;;;;;2.20;2.00;;;;;;;15.82;47.91;96396.78;6965330;28;20232;-90
2023/11/02 06:30:37;;;;;;;3.30;2.10;;;;;;;16.06;48.40;96403.72;6954081;28;20696;-90
2023/11/02 06:34:37;;;;;;;6.63;2.03;;;;;;;15.95;49.00;96417.75;6962787;28;20203;-90
2023/11/02 06:38:06;;;;;;;2.50;1.97;;;;;;;15.11;52.17;96399.69;6955881;28;20317;-90
2023/11/02 06:41:31;;;;;;;2.20;1.93;;;;;;;14.65;53.77;96379.69;6969825;28;20261;-90
2023/11/02 06:44:52;;;;;;;3.60;2.40;;;;;;;14.52;56.39;96448.13;6963651;28;20210;-90
2023/11/02 06:48:14;;;;;;;6.23;2.70;;;;;;;14.77;57.18;96430.78;6969139;28;20231;-90
2023/11/02 06:51:37;;;;;;;3.50;2.47;;;;;;;14.47;56.77;96410.25;6960552;28;20210;-90
2023/11/02 06:54:59;;;;;;;2.40;2.20;;;;;;;14.38;56.13;96387.56;6960682;28;20206;-90
2023/11/02 06:58:20;;;;;;;4.00;3.20;;;;;;;15.02;56.02;96417.72;6968658;28;20267;-90
2023/11/02 07:01:46;;;;;;;3.03;2.30;;;;;;;15.42;55.56;96422.66;6969257;28;20695;-89
2023/11/02 07:05:10;;;;;;;4.30;2.80;;;;;;;15.01;57.59;96439.72;6944498;28;20262;-90
2023/11/02 07:08:32;;;;;;;3.17;2.50;;;;;;;15.20;57.36;96438.66;6968202;28;20269;-90
2023/11/02 07:11:54;;;;;;;2.47;2.20;;;;;;;15.40;56.42;96426.75;6968567;28;20230;-90
2023/11/02 07:15:25;;;;;;;2.33;1.83;;;;;;;14.40;57.38;96319.50;6968634;28;20215;-90
2023/11/02 07:18:56;;;;;;;2.30;2.10;;;;;;;15.04;56.98;96398.44;6966047;28;20273;-90
2023/11/02 07:26:47;;;;;;;2.13;1.90;;;;;;;14.17;57.71;96279.66;6900565;28;20231;-90
2023/11/02 07:56:29;;;;;;;4.57;2.20;;;;;;;14.82;59.62;96335.78;6969750;28;20241;-87
2023/11/02 07:59:52;;;;;;;2.53;1.80;;;;;;;14.61;59.38;96281.00;6967303;28;20257;-87
2023/11/02 08:03:14;;;;;;;2.20;2.00;;;;;;;15.15;58.91;96323.94;6969946;28;20691;-80
2023/11/02 08:06:35;;;;;;;2.00;1.80;;;;;;;14.47;59.54;96233.22;6970673;28;20210;-86
2023/11/02 08:09:57;;;;;;;4.00;1.90;;;;;;;15.13;59.27;96296.28;6972362;28;20264;-86
2023/11/02 08:13:20;;;;;;;3.27;2.67;;;;;;;14.77;59.85;96257.19;6972812;28;20339;-88
2023/11/02 08:16:42;;;;;;;2.77;2.20;;;;;;;15.30;59.50;96289.22;6973912;28;20639;-84
2023/11/02 08:20:04;;;;;;;3.03;2.40;;;;;;;15.48;59.11;96279.47;6977808;28;20231;-85
2023/11/02 08:23:25;;;;;;;6.80;2.73;;;;;;;15.55;58.38;96269.84;6981635;28;20252;-85
2023/11/02 08:26:47;;;;;;;4.47;2.73;;;;;;;15.50;58.49;96263.66;6973243;28;20241;-85
2023/11/02 08:30:10;;;;;;;3.97;3.53;;;;;;;15.72;58.50;96271.97;6976793;28;20320;-86
2023/11/02 08:33:32;;;;;;;5.43;3.40;;;;;;;15.74;58.36;96283.38;6967777;28;20286;-84
2023/11/02 08:36:53;;;;;;;4.60;3.40;;;;;;;15.95;57.54;96249.28;6978521;28;20364;-85
2023/11/02 08:40:18;;;;;;;7.97;4.47;;;;;;;16.00;57.46;96271.75;6978907;28;20342;-86
2023/11/02 08:43:39;;;;;;;4.80;3.00;;;;;;;15.79;57.78;96265.06;6982159;28;20205;-85
2023/11/02 08:47:02;;;;;;;4.63;2.53;;;;;;;15.06;58.28;96198.97;6980547;28;20213;-85
2023/11/02 08:50:25;;;;;;;3.57;2.77;;;;;;;15.39;59.21;96265.75;6971242;28;20286;-83
2023/11/02 08:53:51;;;;;;;2.97;2.40;;;;;;;15.34;59.43;96246.81;6977494;28;20295;-86
2023/11/02 08:57:13;;;;;;;1.80;1.70;;;;;;;15.56;58.96;96247.00;6975082;28;20234;-86
2023/11/02 09:00:35;;;;;;;2.27;2.07;;;;;;;15.80;58.14;96244.16;6967211;28;20680;-86
2023/11/02 09:03:58;;;;;;;3.37;2.20;;;;;;;15.55;58.34;96237.25;6973081;28;20202;-86
2023/11/02 09:07:19;;;;;;;3.50;2.20;;;;;;;14.69;58.56;96117.66;6972847;28;20341;-85
2023/11/02 09:10:41;;;;;;;3.10;2.10;;;;;;;15.41;58.67;96224.75;6974866;28;20244;-86
2023/11/02 09:14:02;;;;;;;2.23;2.13;;;;;;;15.52;58.69;96223.47;6975352;28;20237;-85
2023/11/02 09:17:24;;;;;;;4.07;2.17;;;;;;;15.90;58.05;96225.72;6969893;28;20226;-85
2023/11/02 09:20:47;;;;;;;2.10;2.00;;;;;;;15.75;57.73;96195.34;6974381;28;20205;-85
2023/11/02 09:24:09;;;;;;;2.30;2.10;;;;;;;15.77;57.51;96171.38;6984545;28;20202;-84
2023/11/02 09:27:31;;;;;;;2.30;2.10;;;;;;;15.81;56.73;96153.38;6976086;28;20233;-85
2023/11/02 09:30:52;;;;;;;2.30;2.10;;;;;;;15.99;56.92;96191.31;6975925;28;20230;-85
2023/11/02 09:34:15;;;;;;;2.10;2.00;;;;;;;16.07;56.64;96206.09;6976040;28;20287;-85
2023/11/02 09:37:38;;;;;;;2.77;1.87;;;;;;;16.02;57.06;96223.31;6968274;28;20263;-86
2023/11/02 09:41:00;;;;;;;2.43;2.23;;;;;;;16.08;57.30;96226.72;6968777;28;20285;-85
2023/11/02 09:44:21;;;;;;;2.67;2.47;;;;;;;16.07;58.18;96250.41;6968032;28;20234;-87
2023/11/02 09:47:43;;;;;;;2.13;2.00;;;;;;;16.21;56.37;96253.13;6972231;28;20223;-84
2023/11/02 09:51:05;;;;;;;4.20;3.63;;;;;;;16.30;56.58;96283.94;6969634;28;20210;-87
2023/11/02 09:54:28;;;;;;;2.47;2.27;;;;;;;16.56;56.16;96314.97;6958388;28;20677;-87
2023/11/02 09:57:51;;;;;;;2.57;2.20;;;;;;;16.41;56.70;96326.16;6965134;28;20305;-87
2023/11/02 10:01:13;;;;;;;3.13;2.17;;;;;;;16.42;57.21;96314.19;6964986;28;20702;-84
2023/11/02 10:04:35;;;;;;;2.30;2.10;;;;;;;16.42;57.36;96317.72;6969266;28;20714;-87
2023/11/02 10:07:56;;;;;;;2.20;2.00;;;;;;;16.35;56.80;96311.81;6967100;28;20227;-88
2023/11/02 10:11:24;;;;;;;1.50;1.40;;;;;;;16.11;56.26;96321.28;6970725;28;20212;-85
2023/11/02 10:14:46;;;;;;;1.90;1.80;;;;;;;16.10;57.47;96322.38;6969991;28;20252;-87
2023/11/02 10:18:14;;;;;;;2.00;1.90;;;;;;;15.60;58.96;96307.78;6970040;28;20315;-83
2023/11/02 10:21:36;;;;;;;2.60;1.90;;;;;;;15.87;58.43;96323.34;6968056;28;20606;-87
2023/11/02 10:24:58;;;;;;;2.30;2.10;;;;;;;15.99;58.35;96291.84;6969083;28;20194;-86
2023/11/02 10:28:21;;;;;;;2.10;1.90;;;;;;;16.05;57.95;96287.94;6969717;28;20436;-86
2023/11/02 10:31:43;;;;;;;1.63;1.53;;;;;;;16.32;57.85;96284.41;6969927;28;20238;-86
2023/11/02 10:35:06;;;;;;;2.10;1.90;;;;;;;16.39;58.46;96274.78;6969231;28;20204;-86
2023/11/02 10:38:28;;;;;;;2.80;2.30;;;;;;;16.26;59.45;96264.69;6970020;28;20259;-86
2023/11/02 10:41:56;;;;;;;4.13;2.67;;;;;;;16.31;59.09;96275.47;6967424;28;20298;-86
2023/11/02 10:45:20;;;;;;;3.57;2.23;;;;;;;16.29;59.31;96282.31;6969029;28;20791;-86
2023/11/02 10:48:42;;;;;;;1.60;1.50;;;;;;;16.12;59.29;96263.91;6969293;28;20223;-86
2023/11/02 10:52:07;;;;;;;1.90;1.50;;;;;;;16.27;59.45;96260.06;6967610;28;20620;-86
2023/11/02 10:55:35;;;;;;;2.37;1.70;;;;;;;16.10;60.24;96249.78;6964102;28;20602;-86
2023/11/02 10:58:57;;;;;;;1.20;1.20;;;;;;;15.84;60.37;96209.81;6971986;28;20297;-87
2023/11/02 11:02:20;;;;;;;1.50;1.40;;;;;;;15.93;60.63;96235.97;6974879;28;20345;-84
2023/11/02 11:05:43;;;;;;;1.60;1.50;;;;;;;16.26;60.92;96229.34;6974229;28;20210;-86
2023/11/02 11:09:06;;;;;;;4.80;1.80;;;;;;;16.10;60.56;96222.59;6974726;28;20757;-86
2023/11/02 11:12:29;;;;;;;4.50;1.90;;;;;;;16.02;61.88;96226.03;6974431;28;20363;-84
2023/11/02 11:15:52;;;;;;;1.77;1.67;;;;;;;16.11;61.33;96226.13;6973227;28;20208;-87
2023/11/02 11:19:20;;;;;;;1.70;1.53;;;;;;;16.15;60.03;96222.50;6974202;28;20260;-87
2023/11/02 11:22:43;;;;;;;1.97;1.53;;;;;;;16.25;59.45;96235.91;6982775;28;20207;-87
2023/11/02 11:26:05;;;;;;;1.93;1.83;;;;;;;15.49;59.60;96148.03;6976551;28;20242;-88
2023/11/02 11:29:56;;;;;;;1.77;1.67;;;;;;;16.12;60.53;96225.03;6974336;28;20232;-87
2023/11/02 11:33:49;;;;;;;1.87;1.57;;;;;;;16.04;60.24;96228.47;6957947;28;20212;-80
2023/11/02 11:37:37;;;;;;;2.83;2.33;;;;;;;15.92;58.93;96222.72;6956349;28;20236;-88
2023/11/02 11:53:19;;;;;;;1.77;1.53;;;;;;;15.87;59.89;96210.00;6959526;28;20208;-88
2023/11/02 11:56:41;;;;;;;2.10;1.60;;;;;;;16.09;58.72;96169.34;6971623;28;20210;-83
2023/11/02 12:00:12;;;;;;;1.27;1.27;;;;;;;16.08;59.29;96189.50;6969804;28;20264;-86
2023/11/02 12:03:45;;;;;;;1.47;1.40;;;;;;;16.26;58.06;96171.44;6977849;28;20202;-86
2023/11/02 12:07:07;;;;;;;2.00;1.30;;;;;;;16.11;58.46;96160.91;6955399;28;20653;-87
2023/11/02 12:10:30;;;;;;;1.40;1.30;;;;;;;15.94;58.49;96166.97;6972729;28;20336;-87
2023/11/02 12:13:55;;;;;;;2.20;1.50;;;;;;;16.04;58.45;96147.72;6972268;28;20204;-85
2023/11/02 12:17:16;;;;;;;1.20;1.20;;;;;;;15.03;58.61;96020.47;6972934;28;20227;-87
2023/11/02 12:20:38;;;;;;;1.50;1.30;;;;;;;15.67;59.45;96134.38;6972866;28;20287;-89
2023/11/02 12:24:00;;;;;;;1.37;1.37;;;;;;;15.96;58.98;96118.56;6973191;28;20256;-87
2023/11/02 12:27:23;;;;;;;1.43;1.30;;;;;;;16.09;58.98;96097.88;6972574;28;20334;-87
2023/11/02 12:30:45;;;;;;;2.20;1.60;;;;;;;15.93;58.56;96077.59;6972386;28;20341;-88
2023/11/02 12:34:10;;;;;;;1.97;1.87;;;;;;;16.03;58.74;96085.50;6971881;28;20747;-87
2023/11/02 12:37:32;;;;;;;1.47;1.30;;;;;;;16.14;58.58;96070.59;6962156;28;20231;-87
2023/11/02 12:40:54;;;;;;;1.47;1.37;;;;;;;15.99;58.99;96039.13;6945250;28;20211;-87
2023/11/02 12:44:20;;;;;;;1.30;1.30;;;;;;;15.50;59.44;96025.53;6964612;28;20294;-87
2023/11/02 12:47:41;;;;;;;2.30;1.70;;;;;;;15.51;60.31;96019.00;6972322;28;20216;-88
2023/11/02 12:51:20;;;;;;;2.07;1.40;;;;;;;15.38;60.94;96027.13;6971807;28;20233;-88
2023/11/02 12:54:56;;;;;;;1.70;1.47;;;;;;;15.40;60.32;96031.16;6969971;28;20251;-88
2023/11/02 12:58:18;;;;;;;1.63;1.53;;;;;;;14.57;61.02;96003.44;6972285;28;20227;-88
2023/11/02 13:01:46;;;;;;;1.70;1.50;;;;;;;14.41;60.18;95944.38;6971958;28;20722;-88
2023/11/02 13:05:08;;;;;;;1.57;1.40;;;;;;;15.26;59.05;96059.38;6971535;28;20295;-87
2023/11/02 13:08:29;;;;;;;1.43;1.33;;;;;;;14.88;58.46;95979.28;6969700;28;20234;-88
2023/11/02 13:11:52;;;;;;;4.17;1.53;;;;;;;15.62;56.83;96006.81;6971026;28;20245;-87
2023/11/02 13:15:16;;;;;;;1.93;1.40;;;;;;;14.95;56.64;95887.44;6967283;28;20293;-88
2023/11/02 13:18:50;;;;;;;2.20;1.53;;;;;;;15.73;56.09;95994.63;6964452;28;20603;-88
2023/11/02 13:22:12;;;;;;;3.37;1.67;;;;;;;16.19;55.62;96016.13;6967370;28;20233;-89
2023/11/02 13:25:33;;;;;;;1.47;1.43;;;;;;;16.05;55.18;96035.19;6970690;28;20212;-88
2023/11/02 13:28:55;;;;;;;2.20;1.90;;;;;;;16.32;54.64;96028.84;6974730;28;20236;-88
2023/11/02 13:32:16;;;;;;;1.50;1.40;;;;;;;16.28;53.21;96009.63;6970443;28;20690;-88
2023/11/02 13:48:59;;;;;;;2.70;1.40;;;;;;;16.20;54.54;95985.91;6908786;28;20212;-88
2023/11/02 13:52:21;;;;;;;3.33;1.43;;;;;;;16.13;52.90;95968.44;6908260;28;20710;-88
2023/11/02 13:55:43;;;;;;;1.60;1.30;;;;;;;16.40;52.76;95924.84;6912529;28;20213;-87
2023/11/02 13:59:04;;;;;;;1.60;1.50;;;;;;;16.58;51.26;95949.06;6910233;28;20233;-88
2023/11/02 14:02:27;;;;;;;1.27;1.23;;;;;;;16.67;50.52;95932.81;6912123;28;20207;-88
2023/11/02 14:05:51;;;;;;;1.67;1.20;;;;;;;16.69;51.39;95960.53;6911847;28;20204;-87
2023/11/02 14:09:14;;;;;;;1.70;1.60;;;;;;;16.73;51.50;95996.84;6933588;28;20228;-87
2023/11/02 14:12:35;;;;;;;1.33;1.23;;;;;;;16.32;52.57;95944.56;6969673;28;20284;-88
2023/11/02 14:15:57;;;;;;;2.10;1.50;;;;;;;16.13;52.79;95930.38;6964139;28;20211;-88
2023/11/02 14:19:18;;;;;;;1.70;1.47;;;;;;;16.75;52.15;95979.09;6970321;28;20855;-88
2023/11/02 14:22:41;;;;;;;1.53;1.43;;;;;;;16.60;52.79;95993.09;6959810;28;20692;-90
2023/11/02 14:26:04;;;;;;;2.70;2.50;;;;;;;16.93;52.97;96013.44;6963955;28;20785;-88
2023/11/02 14:29:25;;;;;;;5.13;2.00;;;;;;;16.91;53.42;95999.34;6970337;28;20599;-87
2023/11/02 14:32:47;;;;;;;2.10;1.90;;;;;;;16.79;54.49;95987.44;6964505;28;20474;-87
2023/11/02 14:36:12;;;;;;;3.77;2.57;;;;;;;16.95;53.65;96013.13;6968491;28;20203;-86
2023/11/02 14:39:36;;;;;;;2.90;2.70;;;;;;;16.98;53.95;96009.81;6973810;28;20231;-86
2023/11/02 14:43:00;;;;;;;3.17;2.87;;;;;;;17.03;53.93;96032.22;6968658;28;20576;-87
2023/11/02 14:46:21;;;;;;;3.77;3.43;;;;;;;16.88;54.56;96048.16;6942401;28;20272;-87
2023/11/02 14:49:43;;;;;;;4.63;3.30;;;;;;;16.81;54.86;96031.47;6957239;28;20318;-88
2023/11/02 14:53:04;;;;;;;4.00;3.23;;;;;;;16.68;55.58;96035.09;6966640;28;20263;-86
2023/11/02 14:56:29;;;;;;;3.37;2.60;;;;;;;16.62;55.88;96019.97;6966440;28;20228;-87
2023/11/02 14:59:51;;;;;;;3.47;2.07;;;;;;;16.77;54.78;96014.16;6969508;28;20223;-86
2023/11/02 15:03:13;;;;;;;2.37;2.17;;;;;;;16.17;56.01;95962.06;6969502;28;20618;-86
2023/11/02 15:06:34;;;;;;;2.30;2.10;;;;;;;16.40;56.52;96012.63;6969707;28;20566;-86
2023/11/02 15:09:58;;;;;;;2.03;1.93;;;;;;;16.05;57.84;96012.66;6973733;28;20696;-85
2023/11/02 15:13:21;;;;;;;3.73;1.97;;;;;;;16.14;58.01;96003.47;6970984;28;20211;-85
2023/11/02 15:16:44;;;;;;;2.40;2.20;;;;;;;15.91;58.33;95982.81;6973239;28;20208;-84
2023/11/02 15:20:08;;;;;;;3.73;1.97;;;;;;;15.93;58.16;95969.69;6976630;28;20218;-85
2023/11/02 15:23:29;;;;;;;2.20;2.00;;;;;;;15.80;58.60;95950.75;6968805;28;20291;-86
2023/11/02 15:26:51;;;;;;;2.83;2.20;;;;;;;15.91;58.54;95958.34;6968112;28;20206;-85
2023/11/02 15:30:16;;;;;;;3.97;2.50;;;;;;;15.73;59.23;95956.59;6983130;28;20288;-85
2023/11/02 15:33:37;;;;;;;3.13;2.50;;;;;;;15.51;59.47;95904.19;6981263;28;20348;-85
2023/11/02 15:36:59;;;;;;;2.57;2.37;;;;;;;15.78;58.63;95915.75;6998415;28;20360;-86
2023/11/02 15:40:21;;;;;;;2.87;2.60;;;;;;;15.82;58.79;95940.38;6965915;28;20349;-84
2023/11/02 15:43:42;;;;;;;3.30;2.50;;;;;;;15.82;58.68;95935.72;6972180;28;20341;-85
2023/11/02 15:47:05;;;;;;;3.03;2.23;;;;;;;15.96;58.27;95932.97;6979980;28;20225;-85
2023/11/02 15:50:27;;;;;;;4.57;2.20;;;;;;;15.77;57.92;95899.75;6970508;28;20227;-85
2023/11/02 15:53:50;;;;;;;3.60;1.90;;;;;;;15.17;58.74;95863.09;6983441;28;20282;-85
2023/11/02 15:57:12;;;;;;;3.37;2.27;;;;;;;15.71;57.75;95909.94;6975296;28;20214;-85
2023/11/02 16:00:33;;;;;;;3.27;2.30;;;;;;;15.15;59.99;95919.59;6975422;28;20214;-84
2023/11/02 16:03:57;;;;;;;2.77;2.07;;;;;;;15.51;58.17;95910.38;6975841;28;20219;-85
2023/11/02 16:07:18;;;;;;;2.10;2.00;;;;;;;15.81;57.31;95923.25;6968316;28;20233;-84
2023/11/02 16:10:40;;;;;;;1.90;1.80;;;;;;;15.80;56.74;95923.59;6973896;28;20267;-85
2023/11/02 16:14:03;;;;;;;4.03;2.00;;;;;;;15.81;56.77;95923.25;6971852;28;20252;-84
2023/11/02 16:17:24;;;;;;;6.73;5.97;;;;;;;15.15;57.02;95849.84;6976274;28;20235;-86
2023/11/02 16:20:47;;;;;;;4.23;3.80;;;;;;;15.35;57.33;95898.28;6968749;28;20684;-84
2023/11/02 16:24:10;;;;;;;5.57;5.07;;;;;;;15.62;56.39;95891.97;6959830;28;20568;-85
2023/11/02 16:27:32;;;;;;;4.00;3.70;;;;;;;15.89;54.93;95883.69;6976511;28;20590;-85
2023/11/02 16:30:53;;;;;;;2.30;2.10;;;;;;;15.87;55.49;95883.22;6970962;28;20758;-85
2023/11/02 16:34:17;;;;;;;2.70;2.40;;;;;;;15.67;56.33;95900.78;6973555;28;20300;-85
2023/11/02 16:37:40;;;;;;;3.47;2.47;;;;;;;15.99;56.19;95927.72;6971505;28;20230;-83
2023/11/02 16:41:03;;;;;;;2.90;2.60;;;;;;;15.83;55.67;95921.06;6973688;28;20299;-85
2023/11/02 16:44:24;;;;;;;4.87;2.97;;;;;;;15.73;56.94;95943.03;6972767;28;20206;-85
2023/11/02 16:47:46;;;;;;;6.37;3.70;;;;;;;14.46;60.68;95936.94;6973514;28;20258;-84
2023/11/02 16:51:08;;;;;;;6.60;4.10;;;;;;;14.37;59.75;95853.91;6972545;28;20321;-86
2023/11/02 16:54:31;;;;;;;3.17;2.93;;;;;;;15.16;57.92;95935.56;6971857;28;20255;-88
2023/11/02 16:57:53;;;;;;;5.83;3.90;;;;;;;15.38;57.31;95946.53;6971963;28;20228;-91
2023/11/02 17:01:14;;;;;;;2.93;2.63;;;;;;;15.35;56.82;95949.84;6972008;28;20248;-88
2023/11/02 17:04:36;;;;;;;3.03;2.70;;;;;;;15.34;56.16;95950.16;6971936;28;20742;-89
2023/11/02 17:08:01;;;;;;;2.90;2.70;;;;;;;15.24;56.19;95928.63;6971558;28;20218;-88